Flight Track Log - Related Links

Times and Time Zones

All times are in EDT time to prevent confusion due to time zone crossing. See the DAL839 flight status page for this flight to view local times or setup timezone preferences in your user account.

Time Position Orientation Groundspeed Altitude Reporting Facility
EDT Latitude Longitude Course Direction KTS MPH feet Rate Location/Type
Thu 03:47:24 PM 26.0769 -80.1844 338° Northwest 166 191 900  Level Miami Center
Thu 03:48:07 PM 26.0867 -80.2269 284° West 226 260 1,700 1,631 Climbing Miami Center
Thu 03:49:07 PM 26.1050 -80.3050 285° West 276 318 3,700 1,690 Climbing Miami Center
Thu 03:49:18 PM 26.1067 -80.3067 318° Northwest 260 299 3,700 986 Level Miami Center
Thu 03:50:20 PM 26.1531 -80.3658 311° West 281 323 4,900 1,694 Climbing Miami Center
Thu 03:51:00 PM 26.5011 -80.3849 334° Northwest  Level Estimated
Thu 03:51:22 PM 26.2381 -80.3244 24° Northeast 280 322 7,200  Level Miami Center
Thu 03:52:00 PM 26.6112 -80.4366 338° Northwest  Level FlightAware Approximate
Thu 03:52:24 PM 26.3147 -80.2858 24° Northeast 293 337 9,600  Level Miami Center
Thu 03:53:00 PM 26.7217 -80.4863 338° Northwest  Level FlightAware Approximate
Thu 03:53:26 PM 26.4028 -80.3203 341° North 318 366 11,200  Level Miami Center
Thu 03:54:28 PM 26.4939 -80.3700 334° Northwest 367 422 12,500 1,258 Climbing Miami Center
Thu 03:55:30 PM 26.6069 -80.4183 339° North 405 466 13,800 1,355 Climbing Miami Center
Thu 03:56:32 PM 26.7228 -80.4472 347° North 425 489 15,300 1,500 Climbing Miami Center
Thu 03:57:34 PM 26.8428 -80.4769 348° North 437 503 16,900 1,500 Climbing Miami Center
Thu 03:58:36 PM 26.9736 -80.5089 348° North 452 520 18,400 1,306 Climbing Miami Center
Thu 03:59:38 PM 27.0992 -80.5450 346° North 464 534 19,600 1,210 Climbing Miami Center
Thu 04:00:40 PM 27.2206 -80.6056 336° Northwest 472 543 20,900 1,403 Climbing Miami Center
Thu 04:01:42 PM 27.3400 -80.6703 334° Northwest 477 549 22,500 1,452 Climbing Miami Center
Thu 04:02:44 PM 27.4603 -80.7344 335° Northwest 477 549 23,900 1,161 Climbing Miami Center
Thu 04:03:46 PM 27.5964 -80.8108 334° Northwest 497 572 24,900 484 Climbing Miami Center
Thu 04:04:48 PM 27.7186 -80.8753 335° Northwest 483 556 24,900 48 Level Miami Center
Thu 04:05:50 PM 27.8406 -80.9422 334° Northwest 487 560 25,000 871 Climbing Miami Center
Thu 04:06:52 PM 27.9867 -81.0236 334° Northwest 489 563 26,700 1,403 Climbing Miami Center
Thu 04:07:54 PM 28.1067 -81.0903 334° Northwest 487 560 27,900 629 Climbing Miami Center
Thu 04:08:56 PM 28.2319 -81.1608 334° Northwest 482 555 28,000 532 Climbing Miami Center
Thu 04:09:58 PM 28.3583 -81.2308 334° Northwest 482 555 29,000 919 Climbing Miami Center
Thu 04:11:00 PM 28.4653 -81.2908 334° Northwest 480 552 29,900 871 Climbing Miami Center
Thu 04:12:02 PM 28.5881 -81.3494 337° Northwest 480 552 30,800 532 Climbing Miami Center
Thu 04:13:04 PM 28.7428 -81.4000 344° North 478 550 31,000 48 Climbing Miami Center
Thu 04:14:06 PM 28.8706 -81.4428 344° North 490 564 30,900 -48 Descending Miami Center
Thu 04:15:08 PM 28.9975 -81.4850 344° North 474 545 30,900 48 Level Miami Center
Thu 04:16:10 PM 29.1250 -81.5269 344° North 475 547 31,000  Climbing Miami Center
Thu 04:17:12 PM 29.2533 -81.5706 343° North 473 544 30,900  Descending Miami Center
Thu 04:18:15 PM 29.4000 -81.6219 343° North 472 543 31,000  Climbing Jacksonville Center
Thu 04:19:15 PM 29.5278 -81.6611 345° North 467 537 30,900 -50 Descending Jacksonville Center
Thu 04:20:15 PM 29.6533 -81.7025 344° North 467 537 30,900  Level Jacksonville Center
Thu 04:21:15 PM 29.7811 -81.7464 343° North 467 537 30,900  Level Jacksonville Center
Thu 04:22:15 PM 29.9069 -81.7881 344° North 467 537 30,900  Level Jacksonville Center
Thu 04:23:15 PM 30.0408 -81.8297 345° North 472 543 30,900  Level Jacksonville Center
Thu 04:24:15 PM 30.1600 -81.8692 344° North 472 543 30,900 50 Level Jacksonville Center
Thu 04:25:15 PM 30.2836 -81.9208 340° North 472 543 31,000 50 Climbing Jacksonville Center
Thu 04:26:15 PM 30.4053 -81.9772 338° Northwest 467 537 31,000  Level Jacksonville Center
Thu 04:27:15 PM 30.5267 -82.0317 339° North 467 537 31,000 -50 Level Jacksonville Center
Thu 04:28:15 PM 30.6461 -82.0933 336° Northwest 467 537 30,900 -50 Descending Jacksonville Center
Thu 04:29:15 PM 30.7675 -82.1503 338° Northwest 467 537 30,900 50 Level Jacksonville Center
Thu 04:30:15 PM 30.8869 -82.2075 338° Northwest 467 537 31,000  Climbing Jacksonville Center
Thu 04:31:15 PM 30.9853 -82.2528 338° Northwest 461 531 30,900 -50 Descending Jacksonville Center
Thu 04:32:15 PM 31.1275 -82.3175 339° North 461 531 30,900 50 Level Jacksonville Center
Thu 04:33:15 PM 31.2447 -82.3750 337° Northwest 456 525 31,000 50 Climbing Jacksonville Center
Thu 04:34:15 PM 31.3661 -82.4278 340° North 456 525 31,000  Level Jacksonville Center
Thu 04:35:15 PM 31.4872 -82.4858 338° Northwest 456 525 31,000  Level Jacksonville Center
Thu 04:36:15 PM 31.5919 -82.5583 329° Northwest 456 525 31,000  Level Jacksonville Center
Thu 04:38:00 PM 31.7583 -82.7103 322° Northwest 461 531 31,000  Level Atlanta Center
Thu 04:39:00 PM 31.8656 -82.7869 329° Northwest 461 531 31,000  Level Atlanta Center
Thu 04:40:00 PM 31.9869 -82.8342 342° North 455 524 31,000  Level Atlanta Center
Thu 04:41:00 PM 32.1086 -82.8839 341° North 455 524 31,000  Level Atlanta Center
Thu 04:42:00 PM 32.2447 -82.9411 340° North 461 531 31,000  Level Atlanta Center
Thu 04:43:00 PM 32.3619 -82.9914 340° North 461 531 31,000  Level Atlanta Center
Thu 04:44:00 PM 32.4856 -83.0417 341° North 461 531 31,000  Level Atlanta Center
Thu 04:45:00 PM 32.6050 -83.0944 340° North 461 531 31,000 400 Level Atlanta Center
Thu 04:46:00 PM 32.7264 -83.1425 342° North 456 525 31,800 500 Climbing Atlanta Center
Thu 04:47:00 PM 32.8394 -83.1933 339° North 450 518 32,000 100 Climbing Atlanta Center
Thu 04:48:00 PM 32.9631 -83.2467 340° North 450 518 32,000  Level Atlanta Center
Thu 04:49:00 PM 33.0719 -83.2928 340° North 455 524 32,000  Level Atlanta Center
Thu 04:50:00 PM 33.1972 -83.3064 355° North 445 512 32,000  Level Atlanta Center
Thu 04:51:00 PM 33.3286 -83.3153 357° North 452 520 32,000  Level Atlanta Center
Thu 04:52:00 PM 33.4625 -83.3267 356° North 464 534 32,000  Level Atlanta Center
Thu 04:53:00 PM 33.5919 -83.3306 359° North 464 534 32,000  Level Atlanta Center
Thu 04:54:00 PM 33.7214 -83.3369 358° North 464 534 32,000  Level Atlanta Center
Thu 04:55:00 PM 33.8508 -83.3408 359° North 458 527 32,000  Level Atlanta Center
Thu 04:56:00 PM 33.9822 -83.3397 360° North 463 533 32,000  Level Atlanta Center
Thu 04:57:00 PM 34.1158 -83.3286 North 463 533 32,000  Level Atlanta Center
Thu 04:58:00 PM 34.2428 -83.3100 North 463 533 32,000  Level Atlanta Center
Thu 04:59:00 PM 34.3783 -83.2786 11° North 468 539 32,000  Level Atlanta Center
Thu 05:00:00 PM 34.5078 -83.2700 North 476 548 32,000  Level Atlanta Center
Thu 05:01:00 PM 34.6250 -83.3319 337° Northwest 461 531 32,000  Level Atlanta Center
Thu 05:02:00 PM 34.7486 -83.4092 333° Northwest 443 510 32,000  Level Atlanta Center
Thu 05:03:00 PM 34.8594 -83.4769 333° Northwest 443 510 32,000  Level Atlanta Center
Thu 05:04:00 PM 34.9725 -83.5494 332° Northwest 443 510 32,000  Level Atlanta Center
Thu 05:05:00 PM 35.0728 -83.6125 333° Northwest 449 517 32,000  Level Atlanta Center
Thu 05:06:00 PM 35.1878 -83.6831 333° Northwest 454 522 32,000  Level Atlanta Center
Thu 05:07:00 PM 35.3006 -83.7536 333° Northwest 454 522 32,000  Level Atlanta Center
Thu 05:08:00 PM 35.4114 -83.8222 333° Northwest 454 522 32,000  Level Atlanta Center
Thu 05:09:00 PM 35.5219 -83.8908 333° Northwest 454 522 32,000  Level Atlanta Center
Thu 05:10:00 PM 35.6306 -83.9594 333° Northwest 454 522 32,000  Level Atlanta Center
Thu 05:11:00 PM 35.7392 -84.0286 333° Northwest 449 517 32,000  Level Atlanta Center
Thu 05:12:00 PM 35.8497 -84.1003 332° Northwest 449 517 32,000  Level Atlanta Center
Thu 05:13:38 PM 36.0389 -84.2167 334° Northwest 442 509 32,000  Level Indianapolis Center
Thu 05:14:40 PM 36.1472 -84.2864 333° Northwest 442 509 32,000  Level Indianapolis Center
Thu 05:15:42 PM 36.2550 -84.3544 333° Northwest 442 509 32,000  Level Indianapolis Center
Thu 05:16:45 PM 36.3617 -84.4242 332° Northwest 439 505 32,000  Level Indianapolis Center
Thu 05:17:47 PM 36.4658 -84.4919 332° Northwest 432 497 32,000  Level Indianapolis Center
Thu 05:18:49 PM 36.5889 -84.5725 332° Northwest 422 486 32,000  Level Indianapolis Center
Thu 05:19:51 PM 36.6928 -84.6400 332° Northwest 421 484 32,000  Level Indianapolis Center
Thu 05:20:53 PM 36.7953 -84.7061 333° Northwest 421 484 32,000  Level Indianapolis Center
Thu 05:21:55 PM 36.8983 -84.7736 332° Northwest 417 480 32,000  Level Indianapolis Center
Thu 05:22:57 PM 37.0003 -84.8406 332° Northwest 417 480 32,000  Level Indianapolis Center
Thu 05:23:59 PM 37.1192 -84.9175 333° Northwest 409 471 32,000  Level Indianapolis Center
Thu 05:25:01 PM 37.2200 -84.9861 332° Northwest 409 471 32,000  Level Indianapolis Center
Thu 05:26:04 PM 37.3217 -85.0519 333° Northwest 409 471 32,000  Level Indianapolis Center
Thu 05:27:06 PM 37.4242 -85.1206 332° Northwest 411 473 32,000  Level Indianapolis Center
Thu 05:28:08 PM 37.5278 -85.1886 332° Northwest 414 476 32,000  Level Indianapolis Center
Thu 05:29:10 PM 37.6314 -85.2575 332° Northwest 415 478 32,000  Level Indianapolis Center
Thu 05:30:12 PM 37.7503 -85.3378 332° Northwest 415 478 32,000  Level Indianapolis Center
Thu 05:31:14 PM 37.8506 -85.4058 332° Northwest 415 478 32,000  Level Indianapolis Center
Thu 05:32:16 PM 37.9514 -85.4739 332° Northwest 413 475 32,000  Level Indianapolis Center
Thu 05:33:18 PM 38.0539 -85.5414 333° Northwest 413 475 32,000  Level Indianapolis Center
Thu 05:34:20 PM 38.1556 -85.6075 333° Northwest 413 475 32,000  Level Indianapolis Center
Thu 05:35:23 PM 38.2600 -85.6681 336° Northwest 413 475 32,000  Level Indianapolis Center
Thu 05:36:25 PM 38.3847 -85.7422 335° Northwest 412 474 32,000  Level Indianapolis Center
Thu 05:37:27 PM 38.4889 -85.8031 335° Northwest 413 475 32,000  Level Indianapolis Center
Thu 05:38:29 PM 38.5919 -85.8636 335° Northwest 412 474 32,000  Level Indianapolis Center
Thu 05:39:31 PM 38.6958 -85.9256 335° Northwest 411 473 32,000  Level Indianapolis Center
Thu 05:40:33 PM 38.7981 -85.9869 335° Northwest 411 473 32,000  Level Indianapolis Center
Thu 05:41:35 PM 38.9114 -86.0550 335° Northwest 411 473 32,000  Level Indianapolis Center
Thu 05:42:37 PM 39.0136 -86.1161 335° Northwest 410 472 32,000  Level Indianapolis Center
Thu 05:43:39 PM 39.1164 -86.1781 335° Northwest 410 472 32,000  Level Indianapolis Center
Thu 05:44:41 PM 39.2194 -86.2408 335° Northwest 409 471 32,000  Level Indianapolis Center
Thu 05:45:44 PM 39.3408 -86.3139 335° Northwest 407 468 32,000  Level Indianapolis Center
Thu 05:46:46 PM 39.4422 -86.3775 334° Northwest 407 468 32,000  Level Indianapolis Center
Thu 05:47:48 PM 39.5453 -86.4397 335° Northwest 406 467 32,000  Level Indianapolis Center
Thu 05:48:50 PM 39.6486 -86.5033 335° Northwest 406 467 32,000  Level Indianapolis Center
Thu 05:49:52 PM 39.7514 -86.5678 334° Northwest 406 467 32,000  Level Indianapolis Center
Thu 05:50:54 PM 39.8522 -86.6269 336° Northwest 399 459 32,000  Level Indianapolis Center
Thu 05:51:56 PM 39.9519 -86.6883 335° Northwest 397 457 32,000  Level Indianapolis Center
Thu 05:52:58 PM 40.0511 -86.7494 335° Northwest 396 456 32,000  Level Indianapolis Center
Thu 05:54:00 PM 40.1722 -86.8133 338° Northwest 395 455 32,000  Level Indianapolis Center
Thu 05:55:03 PM 40.2742 -86.8617 340° North 394 453 32,000  Level Indianapolis Center
Thu 05:56:05 PM 40.3750 -86.9106 340° North 390 449 32,000  Level Indianapolis Center
Thu 05:57:07 PM 40.4758 -86.9583 340° North 389 448 32,000  Level Indianapolis Center
Thu 05:58:09 PM 40.5756 -87.0056 340° North 385 443 32,000  Level Indianapolis Center
Thu 05:59:11 PM 40.6736 -87.0553 339° North 382 440 32,000 387 Level Indianapolis Center
Thu 06:00:13 PM 40.7897 -87.1108 340° North 374 430 32,800 968 Climbing Indianapolis Center
Thu 06:01:15 PM 40.8839 -87.1547 341° North 362 417 34,000 581 Climbing Indianapolis Center
Thu 06:02:17 PM 40.9733 -87.1992 339° North 350 403 34,000  Level Indianapolis Center
Thu 06:03:19 PM 41.0633 -87.2456 339° North 349 402 34,000  Level Indianapolis Center
Thu 06:04:22 PM 41.1536 -87.2961 337° Northwest 349 402 34,000  Level Indianapolis Center
Thu 06:05:24 PM 41.2136 -87.4422 299° West 371 427 34,000  Level Indianapolis Center
Thu 06:06:26 PM 41.2522 -87.5733 291° West 381 438 34,000  Level Indianapolis Center
Thu 06:08:39 PM 41.3342 -87.8483 292° West 383 441 34,000  Level Chicago Center
Thu 06:09:41 PM 41.3803 -87.9978 292° West 388 447 34,000  Level Chicago Center
Thu 06:10:43 PM 41.4217 -88.1322 292° West 392 451 34,000  Level Chicago Center
Thu 06:11:45 PM 41.4561 -88.2589 290° West 384 442 34,000  Level Chicago Center
Thu 06:12:48 PM 41.5031 -88.4194 291° West 386 444 34,000  Level Chicago Center
Thu 06:13:50 PM 41.5417 -88.5539 291° West 387 445 34,000  Level Chicago Center
Thu 06:14:52 PM 41.5800 -88.6897 291° West 391 450 34,000  Level Chicago Center
Thu 06:15:54 PM 41.6194 -88.8283 291° West 393 452 34,000  Level Chicago Center
Thu 06:16:56 PM 41.6569 -88.9650 290° West 395 455 34,000  Level Chicago Center
Thu 06:17:58 PM 41.7044 -89.1308 291° West 396 456 34,000  Level Chicago Center
Thu 06:19:00 PM 41.7450 -89.2697 291° West 399 459 34,000  Level Chicago Center
Thu 06:20:02 PM 41.7831 -89.4094 290° West 401 461 34,000  Level Chicago Center
Thu 06:21:05 PM 41.8217 -89.5500 290° West 401 461 34,000  Level Chicago Center
Thu 06:22:07 PM 41.8592 -89.6894 290° West 401 461 34,000  Level Chicago Center
Thu 06:23:09 PM 41.8969 -89.8314 290° West 403 464 34,000  Level Chicago Center
Thu 06:24:11 PM 41.9414 -89.9894 291° West 402 463 34,000  Level Chicago Center
Thu 06:25:13 PM 41.9794 -90.1297 290° West 402 463 34,000  Level Chicago Center
Thu 06:26:15 PM 42.0164 -90.2706 289° West 403 464 34,000  Level Chicago Center
Thu 06:27:17 PM 42.0619 -90.4389 290° West 403 464 34,000  Level Chicago Center
Thu 06:28:20 PM 42.0989 -90.5833 289° West 409 471 34,000  Level Chicago Center
Thu 06:29:22 PM 42.1367 -90.7236 290° West 404 465 34,000  Level Chicago Center
Thu 06:30:24 PM 42.1742 -90.8653 290° West 404 465 34,000  Level Chicago Center
Thu 06:31:26 PM 42.2094 -91.0042 289° West 397 457 34,000  Level Chicago Center
Thu 06:32:28 PM 42.2514 -91.1731 289° West 397 457 34,000 -484 Level Chicago Center
Thu 06:33:30 PM 42.2867 -91.3094 289° West 393 452 33,000 -484 Descending Chicago Center
Thu 06:34:32 PM 42.3217 -91.4481 289° West 393 452 33,000  Level Chicago Center
Thu 06:35:34 PM 42.3558 -91.5853 289° West 391 450 33,000  Level Chicago Center
Thu 06:36:37 PM 42.3908 -91.7219 289° West 388 447 33,000  Level Chicago Center
Thu 06:37:39 PM 42.4253 -91.8586 289° West 386 444 33,000  Level Chicago Center
Thu 06:38:41 PM 42.4653 -92.0228 288° West 385 443 33,000  Level Chicago Center
Thu 06:39:43 PM 42.4994 -92.1606 289° West 386 444 33,000 -484 Level Chicago Center
Thu 06:40:45 PM 42.5331 -92.2983 288° West 386 444 32,000 -484 Descending Chicago Center
Thu 06:41:47 PM 42.5808 -92.4236 297° West 390 449 32,000  Level Chicago Center
Thu 06:42:49 PM 42.6719 -92.5067 326° Northwest 394 453 32,000  Level Chicago Center
Thu 06:43:52 PM 42.7789 -92.6058 326° Northwest 393 452 32,000 -144 Level Chicago Center
Thu 06:44:54 PM 42.8703 -92.6872 327° Northwest 393 452 31,700 -1,113 Descending Chicago Center
Thu 06:45:56 PM 42.9597 -92.7703 326° Northwest 393 452 29,700 -1,839 Descending Chicago Center
Thu 06:46:58 PM 43.0614 -92.8442 332° Northwest 414 476 27,900 -1,790 Descending Chicago Center
Thu 06:48:00 PM 43.1850 -92.8856 346° North 415 478 26,000 -1,839 Descending Chicago Center
Thu 06:49:02 PM 43.3047 -92.9219 348° North 411 473 24,100 -2,177 Descending Chicago Center
Thu 06:50:04 PM 43.4086 -92.9542 347° North 390 449 21,500 -2,274 Descending Chicago Center
Thu 06:51:06 PM 43.5097 -92.9903 345° North 382 440 19,400 -1,632 Descending Chicago Center
Thu 06:52:09 PM 43.6208 -93.0278 346° North 382 440 18,100 -1,310 Descending Chicago Center
Thu 06:53:28 PM 43.7608 -93.0667 349° North 386 444 16,300 -1,352 Descending Minneapolis Center
Thu 06:54:31 PM 43.8711 -93.1022 347° North 380 437 14,900 -1,728 Descending Minneapolis Center
Thu 06:55:33 PM 43.9714 -93.1342 347° North 372 428 12,700 -1,790 Descending Minneapolis Center
Thu 06:56:35 PM 44.0675 -93.1656 347° North 361 415 11,200 -1,306 Descending Minneapolis Center
Thu 06:57:37 PM 44.1572 -93.1969 346° North 337 388 10,000 -581 Descending Minneapolis Center
Thu 06:58:39 PM 44.2450 -93.2211 349° North 326 375 10,000  Level Minneapolis Center
Thu 06:59:43 PM 44.3553 -93.2097 North 331 381 10,000  Level Minneapolis Center
Thu 07:00:45 PM 44.4447 -93.2028 North 321 369 10,000  Level Minneapolis Center
Thu 07:01:47 PM 44.5256 -93.1950 North 297 342 10,000 -242 Level Minneapolis Center
Thu 07:02:49 PM 44.6047 -93.1856 North 289 333 9,500 -823 Descending Minneapolis Center
Thu 07:03:51 PM 44.6775 -93.2147 344° North 278 320 8,300 -720 Descending Minneapolis Center
Thu 07:04:54 PM 44.7525 -93.2597 337° Northwest 278 320 8,000 -432 Descending Minneapolis Center
Thu 07:05:56 PM 44.8244 -93.3069 335° Northwest 278 320 7,400 -871 Descending Minneapolis Center
Thu 07:06:58 PM 44.8617 -93.3992 300° West 276 318 6,200 -1,210 Descending Minneapolis Center
Thu 07:08:00 PM 44.9036 -93.5089 298° West 269 310 4,900 -1,065 Descending Minneapolis Center
Thu 07:09:02 PM 44.9597 -93.5211 351° North 246 283 4,000 -484 Descending Minneapolis Center
Thu 07:10:04 PM 44.9808 -93.4539 66° East 195 224 3,900 -242 Descending Minneapolis Center
Thu 07:11:06 PM 44.9589 -93.3986 119° Southeast 164 189 3,500 -581 Descending Minneapolis Center
Thu 07:12:08 PM 44.9358 -93.3453 121° Southeast 163 188 2,700 -774 Descending Minneapolis Center
Thu 07:13:10 PM 44.9142 -93.2939 121° Southeast 155 178 1,900 -774 Descending Minneapolis Center

Login

Don't have an account? Register now (free) for customized features, flight alerts, and more!